EGKB/BQH METAR and TAF weather

Enter ICAO airport designator
Station Type Date Time Source
EGKB METAR 2022/01/29 10:50 UTC NOAA

EGKB 291050Z 25011KT 220V300 9999 SCT016 11/07 Q1027


Station Type Date Time Source
EGKB Decoded METAR 2022/01/29 10:50 UTC NOAA

Biggin Hill , United Kingdom (EGKB) 51-19N 000-02E
Jan 29, 2022 - 05:50 AM EST / 2022.01.29 1050 UTC
Wind: from the WSW (250 degrees) at 13 MPH (11 KT) (direction variable):0
Visibility: greater than 7 mile(s):0
Sky conditions: partly cloudy
Temperature: 51 F (11 C)
Dew Point: 44 F (7 C)
Relative Humidity: 76%
Pressure (altimeter): 30.33 in. Hg (1027 hPa)
ob: EGKB 291050Z 25011KT 220V300 9999 SCT016 11/07 Q1027
cycle: 11

Station Type Date Time Source
EGKB TAF 2020/08/09 21:40 UTC NOAA

TAF EGKB 092127Z 0921/1021 CNL

Example: see airport list